sensor_id;sensor_type;location;lat;lon;timestamp;pressure;altitude;pressure_sealevel;temperature;humidity
17054;BME280;8643;48.824;11.422;2023-03-25T00:00:18;96344.84;;;5.62;100.00
17054;BME280;8643;48.824;11.422;2023-03-25T00:02:49;96338.41;;;5.89;100.00
17054;BME280;8643;48.824;11.422;2023-03-25T00:05:20;96337.69;;;6.15;100.00
17054;BME280;8643;48.824;11.422;2023-03-25T00:07:51;96337.84;;;6.18;100.00
17054;BME280;8643;48.824;11.422;2023-03-25T00:10:20;96333.38;;;6.31;100.00
17054;BME280;8643;48.824;11.422;2023-03-25T00:12:50;96330.66;;;6.40;100.00
17054;BME280;8643;48.824;11.422;2023-03-25T00:15:20;96330.81;;;6.43;100.00
17054;BME280;8643;48.824;11.422;2023-03-25T00:17:50;96329.38;;;6.55;100.00
17054;BME280;8643;48.824;11.422;2023-03-25T00:20:19;96331.78;;;6.56;100.00
17054;BME280;8643;48.824;11.422;2023-03-25T00:22:48;96331.47;;;6.58;100.00
17054;BME280;8643;48.824;11.422;2023-03-25T00:25:16;96335.16;;;6.62;100.00
17054;BME280;8643;48.824;11.422;2023-03-25T00:27:47;96336.72;;;6.63;100.00
17054;BME280;8643;48.824;11.422;2023-03-25T00:30:20;96340.13;;;6.60;100.00
17054;BME280;8643;48.824;11.422;2023-03-25T00:32:48;96342.19;;;6.54;100.00
17054;BME280;8643;48.824;11.422;2023-03-25T00:35:20;96342.19;;;6.54;100.00
17054;BME280;8643;48.824;11.422;2023-03-25T00:37:51;96342.97;;;6.55;100.00
17054;BME280;8643;48.824;11.422;2023-03-25T00:40:28;96332.91;;;6.55;100.00
17054;BME280;8643;48.824;11.422;2023-03-25T00:43:03;96324.91;;;6.59;100.00
17054;BME280;8643;48.824;11.422;2023-03-25T00:45:33;96327.00;;;6.62;100.00
17054;BME280;8643;48.824;11.422;2023-03-25T00:48:02;96336.09;;;6.57;100.00
17054;BME280;8643;48.824;11.422;2023-03-25T00:50:33;96323.28;;;6.58;100.00
17054;BME280;8643;48.824;11.422;2023-03-25T00:53:02;96311.31;;;6.59;100.00
17054;BME280;8643;48.824;11.422;2023-03-25T00:55:31;96307.94;;;6.53;100.00
17054;BME280;8643;48.824;11.422;2023-03-25T00:57:59;96303.47;;;6.49;100.00
17054;BME280;8643;48.824;11.422;2023-03-25T01:00:28;96300.59;;;6.45;100.00
17054;BME280;8643;48.824;11.422;2023-03-25T01:02:58;96297.38;;;6.43;100.00
17054;BME280;8643;48.824;11.422;2023-03-25T01:05:30;96298.69;;;6.46;100.00
17054;BME280;8643;48.824;11.422;2023-03-25T01:07:59;96299.31;;;6.42;100.00
17054;BME280;8643;48.824;11.422;2023-03-25T01:10:29;96300.91;;;6.43;100.00
17054;BME280;8643;48.824;11.422;2023-03-25T01:12:57;96303.47;;;6.40;100.00
17054;BME280;8643;48.824;11.422;2023-03-25T01:15:26;96294.50;;;6.39;100.00
17054;BME280;8643;48.824;11.422;2023-03-25T01:17:54;96299.00;;;6.44;100.00
17054;BME280;8643;48.824;11.422;2023-03-25T01:20:25;96298.19;;;6.43;100.00
17054;BME280;8643;48.824;11.422;2023-03-25T01:22:54;96307.94;;;6.45;100.00
17054;BME280;8643;48.824;11.422;2023-03-25T01:25:22;96292.28;;;6.50;100.00
17054;BME280;8643;48.824;11.422;2023-03-25T01:27:51;96303.31;;;6.54;100.00
17054;BME280;8643;48.824;11.422;2023-03-25T01:30:19;96304.91;;;6.55;100.00
17054;BME280;8643;48.824;11.422;2023-03-25T01:32:48;96299.63;;;6.58;100.00
17054;BME280;8643;48.824;11.422;2023-03-25T01:35:17;96296.25;;;6.61;100.00
17054;BME280;8643;48.824;11.422;2023-03-25T01:37:47;96290.81;;;6.61;100.00
17054;BME280;8643;48.824;11.422;2023-03-25T01:40:18;96291.78;;;6.66;100.00
17054;BME280;8643;48.824;11.422;2023-03-25T01:42:47;96293.72;;;6.65;100.00
17054;BME280;8643;48.824;11.422;2023-03-25T01:45:27;96284.22;;;6.71;100.00
17054;BME280;8643;48.824;11.422;2023-03-25T01:48:06;96292.91;;;6.73;100.00
17054;BME280;8643;48.824;11.422;2023-03-25T01:50:40;96283.91;;;6.73;100.00
17054;BME280;8643;48.824;11.422;2023-03-25T01:53:11;96292.88;;;6.82;100.00
17054;BME280;8643;48.824;11.422;2023-03-25T01:55:40;96296.88;;;6.85;100.00
17054;BME280;8643;48.824;11.422;2023-03-25T01:58:15;96287.63;;;6.68;100.00
17054;BME280;8643;48.824;11.422;2023-03-25T02:00:48;96288.72;;;6.67;100.00
17054;BME280;8643;48.824;11.422;2023-03-25T02:03:21;96290.66;;;6.67;100.00
17054;BME280;8643;48.824;11.422;2023-03-25T02:05:58;96285.22;;;6.67;100.00
17054;BME280;8643;48.824;11.422;2023-03-25T02:08:34;96290.66;;;6.67;100.00
17054;BME280;8643;48.824;11.422;2023-03-25T02:11:07;96283.75;;;6.69;100.00
17054;BME280;8643;48.824;11.422;2023-03-25T02:13:38;96283.75;;;6.69;100.00
17054;BME280;8643;48.824;11.422;2023-03-25T02:16:29;96280.06;;;6.74;100.00
17054;BME280;8643;48.824;11.422;2023-03-25T02:22:35;96302.31;;;6.76;100.00
17054;BME280;8643;48.824;11.422;2023-03-25T02:25:36;96291.63;;;6.53;100.00
17054;BME280;8643;48.824;11.422;2023-03-25T02:28:23;96304.28;;;6.23;100.00
17054;BME280;8643;48.824;11.422;2023-03-25T02:31:17;96299.91;;;6.04;100.00
17054;BME280;8643;48.824;11.422;2023-03-25T02:37:52;96278.09;;;5.78;100.00
17054;BME280;8643;48.824;11.422;2023-03-25T02:40:33;96271.09;;;5.77;100.00
17054;BME280;8643;48.824;11.422;2023-03-25T02:43:10;96265.50;;;5.74;100.00
17054;BME280;8643;48.824;11.422;2023-03-25T02:45:45;96270.75;;;5.70;100.00
17054;BME280;8643;48.824;11.422;2023-03-25T02:48:21;96283.69;;;5.73;100.00
17054;BME280;8643;48.824;11.422;2023-03-25T02:50:56;96278.75;;;5.75;100.00
17054;BME280;8643;48.824;11.422;2023-03-25T02:53:31;96284.00;;;5.72;100.00
17054;BME280;8643;48.824;11.422;2023-03-25T02:56:06;96284.50;;;5.74;100.00
17054;BME280;8643;48.824;11.422;2023-03-25T02:58:39;96291.06;;;5.73;100.00
17054;BME280;8643;48.824;11.422;2023-03-25T03:01:10;96280.50;;;5.71;100.00
17054;BME280;8643;48.824;11.422;2023-03-25T03:03:41;96287.84;;;5.71;100.00
17054;BME280;8643;48.824;11.422;2023-03-25T03:06:16;96283.53;;;5.69;100.00
17054;BME280;8643;48.824;11.422;2023-03-25T03:09:20;96284.16;;;5.75;100.00
17054;BME280;8643;48.824;11.422;2023-03-25T03:12:09;96279.56;;;5.76;100.00
17054;BME280;8643;48.824;11.422;2023-03-25T03:15:15;96274.59;;;5.69;100.00
17054;BME280;8643;48.824;11.422;2023-03-25T03:18:03;96267.22;;;5.69;100.00
17054;BME280;8643;48.824;11.422;2023-03-25T03:20:40;96268.00;;;5.61;100.00
17054;BME280;8643;48.824;11.422;2023-03-25T03:23:21;96264.81;;;5.59;100.00
17054;BME280;8643;48.824;11.422;2023-03-25T03:25:59;96267.38;;;5.64;100.00
17054;BME280;8643;48.824;11.422;2023-03-25T03:28:41;96272.66;;;5.61;100.00
17054;BME280;8643;48.824;11.422;2023-03-25T03:31:21;96270.72;;;5.53;100.00
17054;BME280;8643;48.824;11.422;2023-03-25T03:34:19;96271.66;;;5.48;100.00
17054;BME280;8643;48.824;11.422;2023-03-25T03:36:54;96262.53;;;5.44;100.00
17054;BME280;8643;48.824;11.422;2023-03-25T03:39:30;96260.63;;;5.44;100.00
17054;BME280;8643;48.824;11.422;2023-03-25T03:42:08;96258.88;;;5.48;100.00
17054;BME280;8643;48.824;11.422;2023-03-25T03:44:44;96260.81;;;5.48;100.00
17054;BME280;8643;48.824;11.422;2023-03-25T03:47:20;96269.09;;;5.51;100.00
17054;BME280;8643;48.824;11.422;2023-03-25T03:49:55;96270.72;;;5.53;100.00
17054;BME280;8643;48.824;11.422;2023-03-25T03:52:29;96272.31;;;5.54;100.00
17054;BME280;8643;48.824;11.422;2023-03-25T03:55:03;96276.31;;;5.56;100.00
17054;BME280;8643;48.824;11.422;2023-03-25T03:57:42;96262.44;;;5.66;100.00
17054;BME280;8643;48.824;11.422;2023-03-25T04:00:18;96262.13;;;5.77;100.00
17054;BME280;8643;48.824;11.422;2023-03-25T04:02:53;96277.47;;;5.81;100.00
17054;BME280;8643;48.824;11.422;2023-03-25T04:05:27;96269.69;;;5.88;100.00
17054;BME280;8643;48.824;11.422;2023-03-25T04:08:03;96281.03;;;5.91;100.00
17054;BME280;8643;48.824;11.422;2023-03-25T04:10:42;96283.91;;;5.85;100.00
17054;BME280;8643;48.824;11.422;2023-03-25T04:13:21;96282.44;;;5.88;100.00
17054;BME280;8643;48.824;11.422;2023-03-25T04:15:51;96291.72;;;5.87;100.00
17054;BME280;8643;48.824;11.422;2023-03-25T04:18:20;96294.91;;;5.89;100.00
17054;BME280;8643;48.824;11.422;2023-03-25T04:20:49;96295.72;;;5.90;100.00
17054;BME280;8643;48.824;11.422;2023-03-25T04:23:18;96291.88;;;5.91;100.00
17054;BME280;8643;48.824;11.422;2023-03-25T04:25:47;96285.66;;;5.90;100.00
17054;BME280;8643;48.824;11.422;2023-03-25T04:28:21;96283.56;;;5.96;100.00
17054;BME280;8643;48.824;11.422;2023-03-25T04:30:51;96281.06;;;5.99;100.00
17054;BME280;8643;48.824;11.422;2023-03-25T04:33:22;96282.97;;;5.99;100.00
17054;BME280;8643;48.824;11.422;2023-03-25T04:35:51;96280.09;;;6.04;100.00
17054;BME280;8643;48.824;11.422;2023-03-25T04:38:20;96289.34;;;6.03;100.00
17054;BME280;8643;48.824;11.422;2023-03-25T04:40:49;96282.66;;;6.09;100.00
17054;BME280;8643;48.824;11.422;2023-03-25T04:43:17;96295.31;;;6.05;100.00
17054;BME280;8643;48.824;11.422;2023-03-25T04:45:47;96281.72;;;6.05;100.00
17054;BME280;8643;48.824;11.422;2023-03-25T04:48:25;96293.84;;;6.08;100.00
17054;BME280;8643;48.824;11.422;2023-03-25T04:50:57;96295.94;;;6.11;100.00
17054;BME280;8643;48.824;11.422;2023-03-25T04:53:27;96295.13;;;6.19;100.00
17054;BME280;8643;48.824;11.422;2023-03-25T04:55:56;96298.38;;;6.21;100.00
17054;BME280;8643;48.824;11.422;2023-03-25T04:58:25;96285.41;;;6.18;100.00
17054;BME280;8643;48.824;11.422;2023-03-25T05:00:56;96278.66;;;6.15;100.00
17054;BME280;8643;48.824;11.422;2023-03-25T05:03:32;96282.34;;;6.11;100.00
17054;BME280;8643;48.824;11.422;2023-03-25T05:06:01;96287.63;;;6.07;100.00
17054;BME280;8643;48.824;11.422;2023-03-25T05:08:29;96275.66;;;6.08;100.00
17054;BME280;8643;48.824;11.422;2023-03-25T05:10:58;96285.22;;;6.05;100.00
17054;BME280;8643;48.824;11.422;2023-03-25T05:13:27;96291.13;;;6.08;100.00
17054;BME280;8643;48.824;11.422;2023-03-25T05:15:56;96293.38;;;6.05;100.00
17054;BME280;8643;48.824;11.422;2023-03-25T05:18:26;96300.75;;;6.05;100.00
17054;BME280;8643;48.824;11.422;2023-03-25T05:20:54;96301.53;;;5.97;100.00
17054;BME280;8643;48.824;11.422;2023-03-25T05:23:23;96310.16;;;5.99;100.00
17054;BME280;8643;48.824;11.422;2023-03-25T05:25:52;96308.84;;;5.96;100.00
17054;BME280;8643;48.824;11.422;2023-03-25T05:28:22;96300.84;;;5.91;100.00
17054;BME280;8643;48.824;11.422;2023-03-25T05:30:51;96317.28;;;5.86;100.00
17054;BME280;8643;48.824;11.422;2023-03-25T05:33:21;96313.16;;;5.88;100.00
17054;BME280;8643;48.824;11.422;2023-03-25T05:35:50;96327.19;;;5.82;100.00
17054;BME280;8643;48.824;11.422;2023-03-25T05:38:19;96320.78;;;5.86;100.00
17054;BME280;8643;48.824;11.422;2023-03-25T05:40:48;96323.81;;;5.85;100.00
17054;BME280;8643;48.824;11.422;2023-03-25T05:43:17;96324.97;;;5.84;100.00
17054;BME280;8643;48.824;11.422;2023-03-25T05:45:49;96325.59;;;5.81;100.00
17054;BME280;8643;48.824;11.422;2023-03-25T05:48:17;96326.38;;;5.81;100.00
17054;BME280;8643;48.824;11.422;2023-03-25T05:50:47;96331.03;;;5.81;100.00
17054;BME280;8643;48.824;11.422;2023-03-25T05:53:16;96344.63;;;5.90;100.00
17054;BME280;8643;48.824;11.422;2023-03-25T05:55:46;96345.44;;;5.90;100.00
17054;BME280;8643;48.824;11.422;2023-03-25T05:58:18;96346.22;;;5.91;100.00
17054;BME280;8643;48.824;11.422;2023-03-25T06:00:46;96346.56;;;5.89;100.00
17054;BME280;8643;48.824;11.422;2023-03-25T06:03:17;96364.16;;;5.92;100.00
17054;BME280;8643;48.824;11.422;2023-03-25T06:05:49;96368.28;;;5.89;100.00
17054;BME280;8643;48.824;11.422;2023-03-25T06:08:19;96369.91;;;5.90;100.00
17054;BME280;8643;48.824;11.422;2023-03-25T06:10:54;96368.66;;;5.96;100.00
17054;BME280;8643;48.824;11.422;2023-03-25T06:13:27;96373.56;;;5.94;100.00
17054;BME280;8643;48.824;11.422;2023-03-25T06:15:55;96375.53;;;6.02;100.00
17054;BME280;8643;48.824;11.422;2023-03-25T06:18:26;96375.91;;;6.10;100.00
17054;BME280;8643;48.824;11.422;2023-03-25T06:20:56;96385.94;;;6.09;100.00
17054;BME280;8643;48.824;11.422;2023-03-25T06:23:25;96384.50;;;6.03;100.00
17054;BME280;8643;48.824;11.422;2023-03-25T06:25:54;96385.16;;;6.09;100.00
17054;BME280;8643;48.824;11.422;2023-03-25T06:28:25;96393.16;;;6.14;100.00
17054;BME280;8643;48.824;11.422;2023-03-25T06:30:53;96382.13;;;6.19;100.00
17054;BME280;8643;48.824;11.422;2023-03-25T06:33:23;96375.13;;;6.18;100.00
17054;BME280;8643;48.824;11.422;2023-03-25T06:36:13;96382.63;;;6.21;100.00
17054;BME280;8643;48.824;11.422;2023-03-25T06:38:45;96389.50;;;6.18;100.00
17054;BME280;8643;48.824;11.422;2023-03-25T06:41:16;96384.88;;;6.36;100.00
17054;BME280;8643;48.824;11.422;2023-03-25T06:43:53;96395.28;;;6.52;100.00
17054;BME280;8643;48.824;11.422;2023-03-25T06:46:45;96393.06;;;6.45;100.00
17054;BME280;8643;48.824;11.422;2023-03-25T06:49:16;96394.97;;;6.36;100.00
17054;BME280;8643;48.824;11.422;2023-03-25T06:51:46;96399.13;;;6.42;100.00
17054;BME280;8643;48.824;11.422;2023-03-25T06:54:15;96400.88;;;6.38;100.00
17054;BME280;8643;48.824;11.422;2023-03-25T06:56:44;96413.19;;;6.27;100.00
17054;BME280;8643;48.824;11.422;2023-03-25T06:59:13;96403.09;;;6.18;100.00
17054;BME280;8643;48.824;11.422;2023-03-25T07:01:42;96407.28;;;6.24;100.00
17054;BME280;8643;48.824;11.422;2023-03-25T07:04:10;96401.03;;;6.33;100.00
17054;BME280;8643;48.824;11.422;2023-03-25T07:06:38;96397.06;;;6.39;100.00
17054;BME280;8643;48.824;11.422;2023-03-25T07:09:10;96394.66;;;6.46;100.00
17054;BME280;8643;48.824;11.422;2023-03-25T07:11:38;96400.13;;;6.72;100.00
17054;BME280;8643;48.824;11.422;2023-03-25T07:14:07;96414.53;;;6.82;100.00
17054;BME280;8643;48.824;11.422;2023-03-25T07:16:35;96405.25;;;6.74;100.00
17054;BME280;8643;48.824;11.422;2023-03-25T07:19:04;96401.41;;;6.84;100.00
17054;BME280;8643;48.824;11.422;2023-03-25T07:21:32;96420.91;;;7.29;100.00
17054;BME280;8643;48.824;11.422;2023-03-25T07:24:01;96412.88;;;7.42;100.00
17054;BME280;8643;48.824;11.422;2023-03-25T07:26:31;96420.78;;;7.73;100.00
17054;BME280;8643;48.824;11.422;2023-03-25T07:28:59;96415.72;;;8.61;100.00
17054;BME280;8643;48.824;11.422;2023-03-25T07:31:29;96415.63;;;8.78;100.00
17054;BME280;8643;48.824;11.422;2023-03-25T07:33:58;96404.75;;;8.70;100.00
17054;BME280;8643;48.824;11.422;2023-03-25T07:36:28;96408.78;;;9.06;100.00
17054;BME280;8643;48.824;11.422;2023-03-25T07:38:57;96407.03;;;8.89;100.00
17054;BME280;8643;48.824;11.422;2023-03-25T07:41:25;96396.22;;;8.92;100.00
17054;BME280;8643;48.824;11.422;2023-03-25T07:44:24;96402.47;;;9.60;100.00
17054;BME280;8643;48.824;11.422;2023-03-25T07:46:53;96417.13;;;9.09;100.00
17054;BME280;8643;48.824;11.422;2023-03-25T07:49:22;96423.06;;;8.90;100.00
17054;BME280;8643;48.824;11.422;2023-03-25T07:51:51;96418.78;;;9.23;100.00
17054;BME280;8643;48.824;11.422;2023-03-25T07:54:19;96400.16;;;8.61;100.00
17054;BME280;8643;48.824;11.422;2023-03-25T07:56:48;96418.34;;;8.78;100.00
17054;BME280;8643;48.824;11.422;2023-03-25T07:59:19;96417.44;;;8.36;100.00
17054;BME280;8643;48.824;11.422;2023-03-25T08:01:49;96421.69;;;8.24;100.00
17054;BME280;8643;48.824;11.422;2023-03-25T08:04:17;96436.41;;;9.25;100.00
17054;BME280;8643;48.824;11.422;2023-03-25T08:06:46;96418.03;;;9.80;100.00
17054;BME280;8643;48.824;11.422;2023-03-25T08:09:14;96422.00;;;10.81;100.00
17054;BME280;8643;48.824;11.422;2023-03-25T08:11:43;96416.31;;;9.76;100.00
17054;BME280;8643;48.824;11.422;2023-03-25T08:14:11;96428.16;;;9.34;100.00
17054;BME280;8643;48.824;11.422;2023-03-25T08:16:40;96425.81;;;8.90;100.00
17054;BME280;8643;48.824;11.422;2023-03-25T08:19:10;96407.78;;;9.10;100.00
17054;BME280;8643;48.824;11.422;2023-03-25T08:21:39;96434.56;;;8.75;100.00
17054;BME280;8643;48.824;11.422;2023-03-25T08:24:07;96417.25;;;8.50;100.00
17054;BME280;8643;48.824;11.422;2023-03-25T08:26:37;96421.66;;;8.33;100.00
17054;BME280;8643;48.824;11.422;2023-03-25T08:29:05;96421.00;;;9.08;100.00
17054;BME280;8643;48.824;11.422;2023-03-25T08:31:36;96428.50;;;9.32;100.00
17054;BME280;8643;48.824;11.422;2023-03-25T08:34:06;96414.53;;;10.29;98.02
17054;BME280;8643;48.824;11.422;2023-03-25T08:36:36;96417.72;;;10.68;94.09
17054;BME280;8643;48.824;11.422;2023-03-25T08:39:05;96404.25;;;10.51;93.24
17054;BME280;8643;48.824;11.422;2023-03-25T08:41:38;96423.75;;;10.24;95.13
17054;BME280;8643;48.824;11.422;2023-03-25T08:44:06;96418.03;;;10.79;90.40
17054;BME280;8643;48.824;11.422;2023-03-25T08:46:35;96415.31;;;10.67;88.91
17054;BME280;8643;48.824;11.422;2023-03-25T08:49:04;96413.56;;;10.87;87.93
17054;BME280;8643;48.824;11.422;2023-03-25T08:51:33;96410.59;;;11.20;88.51
17054;BME280;8643;48.824;11.422;2023-03-25T08:54:03;96404.03;;;10.68;88.72
17054;BME280;8643;48.824;11.422;2023-03-25T08:56:32;96394.22;;;11.52;85.72
17054;BME280;8643;48.824;11.422;2023-03-25T08:59:00;96387.50;;;11.49;83.49
17054;BME280;8643;48.824;11.422;2023-03-25T09:01:29;96384.16;;;12.52;79.85
17054;BME280;8643;48.824;11.422;2023-03-25T09:03:57;96399.84;;;11.87;80.37
17054;BME280;8643;48.824;11.422;2023-03-25T09:06:26;96394.75;;;11.13;81.91
17054;BME280;8643;48.824;11.422;2023-03-25T09:09:15;96405.47;;;10.78;80.34
17054;BME280;8643;48.824;11.422;2023-03-25T09:11:44;96396.41;;;10.00;85.17
17054;BME280;8643;48.824;11.422;2023-03-25T09:14:12;96404.84;;;10.56;84.42
17054;BME280;8643;48.824;11.422;2023-03-25T09:16:41;96407.25;;;10.45;86.17
17054;BME280;8643;48.824;11.422;2023-03-25T09:19:10;96413.25;;;9.89;87.18
17054;BME280;8643;48.824;11.422;2023-03-25T09:21:38;96392.91;;;9.53;88.18
17054;BME280;8643;48.824;11.422;2023-03-25T09:24:07;96396.72;;;9.86;88.79
17054;BME280;8643;48.824;11.422;2023-03-25T09:26:37;96398.44;;;10.03;89.31
17054;BME280;8643;48.824;11.422;2023-03-25T09:29:06;96408.81;;;9.85;88.24
17054;BME280;8643;48.824;11.422;2023-03-25T09:31:35;96401.38;;;9.27;91.15
17054;BME280;8643;48.824;11.422;2023-03-25T09:34:04;96411.38;;;9.23;93.11
17054;BME280;8643;48.824;11.422;2023-03-25T09:36:33;96408.38;;;9.49;93.76
17054;BME280;8643;48.824;11.422;2023-03-25T09:39:03;96403.69;;;9.83;91.49
17054;BME280;8643;48.824;11.422;2023-03-25T09:42:00;96401.69;;;9.59;93.33
17054;BME280;8643;48.824;11.422;2023-03-25T09:44:38;96437.44;;;8.57;100.00
17054;BME280;8643;48.824;11.422;2023-03-25T09:47:16;96403.63;;;8.11;100.00
17054;BME280;8643;48.824;11.422;2023-03-25T09:49:50;96403.22;;;8.60;100.00
17054;BME280;8643;48.824;11.422;2023-03-25T09:52:26;96400.22;;;9.16;100.00
17054;BME280;8643;48.824;11.422;2023-03-25T09:55:03;96396.28;;;10.08;100.00
17054;BME280;8643;48.824;11.422;2023-03-25T09:57:42;96387.84;;;10.63;97.10
17054;BME280;8643;48.824;11.422;2023-03-25T10:00:19;96390.31;;;9.69;92.79
17054;BME280;8643;48.824;11.422;2023-03-25T10:03:02;96398.78;;;10.01;95.32
17054;BME280;8643;48.824;11.422;2023-03-25T10:06:09;96402.09;;;10.07;94.74
17054;BME280;8643;48.824;11.422;2023-03-25T10:08:59;96388.50;;;9.86;90.79
17054;BME280;8643;48.824;11.422;2023-03-25T10:11:40;96376.31;;;10.57;89.34
17054;BME280;8643;48.824;11.422;2023-03-25T10:14:19;96380.56;;;11.84;79.13
17054;BME280;8643;48.824;11.422;2023-03-25T10:17:07;96392.19;;;11.93;78.79
17054;BME280;8643;48.824;11.422;2023-03-25T10:19:54;96363.66;;;11.98;79.03
17054;BME280;8643;48.824;11.422;2023-03-25T10:22:34;96369.88;;;12.10;78.81
17054;BME280;8643;48.824;11.422;2023-03-25T10:25:11;96362.22;;;11.88;77.65
17054;BME280;8643;48.824;11.422;2023-03-25T10:27:44;96353.94;;;11.24;82.34
17054;BME280;8643;48.824;11.422;2023-03-25T10:30:20;96360.03;;;10.36;85.96
17054;BME280;8643;48.824;11.422;2023-03-25T10:32:53;96360.94;;;10.16;87.41
17054;BME280;8643;48.824;11.422;2023-03-25T10:35:26;96351.09;;;9.53;88.34
17054;BME280;8643;48.824;11.422;2023-03-25T10:37:59;96348.78;;;9.30;91.02
17054;BME280;8643;48.824;11.422;2023-03-25T10:40:40;96352.34;;;9.43;90.53
17054;BME280;8643;48.824;11.422;2023-03-25T10:43:20;96364.28;;;9.39;90.55
17054;BME280;8643;48.824;11.422;2023-03-25T10:46:00;96349.81;;;9.26;98.19
17054;BME280;8643;48.824;11.422;2023-03-25T10:48:34;96354.16;;;8.72;100.00
17054;BME280;8643;48.824;11.422;2023-03-25T10:51:08;96365.16;;;8.34;100.00
17054;BME280;8643;48.824;11.422;2023-03-25T10:53:40;96359.88;;;8.07;100.00
17054;BME280;8643;48.824;11.422;2023-03-25T10:56:14;96354.81;;;7.88;100.00
17054;BME280;8643;48.824;11.422;2023-03-25T10:58:49;96372.34;;;7.79;100.00
17054;BME280;8643;48.824;11.422;2023-03-25T11:01:31;96362.19;;;7.49;100.00
17054;BME280;8643;48.824;11.422;2023-03-25T11:04:04;96370.25;;;7.37;100.00
17054;BME280;8643;48.824;11.422;2023-03-25T11:06:37;96371.75;;;7.17;100.00
17054;BME280;8643;48.824;11.422;2023-03-25T11:09:15;96370.00;;;7.04;100.00
17054;BME280;8643;48.824;11.422;2023-03-25T11:11:45;96350.81;;;6.74;100.00
17054;BME280;8643;48.824;11.422;2023-03-25T11:14:15;96367.31;;;6.69;100.00
17054;BME280;8643;48.824;11.422;2023-03-25T11:16:54;96360.75;;;6.61;100.00
17054;BME280;8643;48.824;11.422;2023-03-25T11:19:27;96353.69;;;7.60;100.00
17054;BME280;8643;48.824;11.422;2023-03-25T11:22:02;96353.50;;;7.95;100.00
17054;BME280;8643;48.824;11.422;2023-03-25T11:24:43;96339.31;;;8.61;100.00
17054;BME280;8643;48.824;11.422;2023-03-25T11:27:20;96350.31;;;7.93;100.00
17054;BME280;8643;48.824;11.422;2023-03-25T11:29:52;96356.22;;;7.65;100.00
17054;BME280;8643;48.824;11.422;2023-03-25T11:32:32;96343.38;;;7.18;100.00
17054;BME280;8643;48.824;11.422;2023-03-25T11:35:06;96334.25;;;9.05;100.00
17054;BME280;8643;48.824;11.422;2023-03-25T11:37:44;96332.88;;;8.99;100.00
17054;BME280;8643;48.824;11.422;2023-03-25T11:40:15;96340.84;;;7.99;100.00
17054;BME280;8643;48.824;11.422;2023-03-25T11:42:45;96335.28;;;7.86;100.00
17054;BME280;8643;48.824;11.422;2023-03-25T11:45:21;96324.00;;;7.67;100.00
17054;BME280;8643;48.824;11.422;2023-03-25T11:47:56;96339.13;;;7.85;100.00
17054;BME280;8643;48.824;11.422;2023-03-25T11:50:30;96335.38;;;8.92;100.00
17054;BME280;8643;48.824;11.422;2023-03-25T11:53:02;96321.78;;;8.83;100.00
17054;BME280;8643;48.824;11.422;2023-03-25T11:55:40;96317.06;;;10.37;100.00
17054;BME280;8643;48.824;11.422;2023-03-25T11:58:16;96320.97;;;10.64;100.00
17054;BME280;8643;48.824;11.422;2023-03-25T12:00:48;96305.28;;;10.77;100.00
17054;BME280;8643;48.824;11.422;2023-03-25T12:03:24;96322.53;;;10.77;100.00
17054;BME280;8643;48.824;11.422;2023-03-25T12:05:59;96295.34;;;11.45;100.00
17054;BME280;8643;48.824;11.422;2023-03-25T12:08:31;96313.84;;;10.75;100.00
17054;BME280;8643;48.824;11.422;2023-03-25T12:11:14;96321.19;;;9.81;100.00
17054;BME280;8643;48.824;11.422;2023-03-25T12:14:13;96292.47;;;10.12;100.00
17054;BME280;8643;48.824;11.422;2023-03-25T12:16:51;96306.59;;;9.52;100.00
17054;BME280;8643;48.824;11.422;2023-03-25T12:19:34;96297.44;;;9.24;100.00
17054;BME280;8643;48.824;11.422;2023-03-25T12:22:24;96266.94;;;9.96;100.00
17054;BME280;8643;48.824;11.422;2023-03-25T12:25:15;96281.34;;;11.02;100.00
17054;BME280;8643;48.824;11.422;2023-03-25T12:28:03;96275.84;;;10.58;100.00
17054;BME280;8643;48.824;11.422;2023-03-25T12:30:51;96273.66;;;9.61;100.00
17054;BME280;8643;48.824;11.422;2023-03-25T12:33:42;96284.38;;;9.29;100.00
17054;BME280;8643;48.824;11.422;2023-03-25T12:36:40;96272.00;;;9.57;100.00
17054;BME280;8643;48.824;11.422;2023-03-25T12:39:37;96281.28;;;11.78;100.00
17054;BME280;8643;48.824;11.422;2023-03-25T12:42:29;96303.00;;;10.51;100.00
17054;BME280;8643;48.824;11.422;2023-03-25T12:45:34;96276.34;;;10.23;100.00
17054;BME280;8643;48.824;11.422;2023-03-25T12:48:16;96280.06;;;12.46;100.00
17054;BME280;8643;48.824;11.422;2023-03-25T12:50:59;96279.06;;;12.00;92.46
17054;BME280;8643;48.824;11.422;2023-03-25T12:53:49;96273.34;;;11.41;99.17
17054;BME280;8643;48.824;11.422;2023-03-25T12:56:36;96265.69;;;12.14;97.41
17054;BME280;8643;48.824;11.422;2023-03-25T12:59:44;96243.13;;;12.05;96.58
17054;BME280;8643;48.824;11.422;2023-03-25T13:02:29;96243.16;;;11.73;93.40
17054;BME280;8643;48.824;11.422;2023-03-25T13:05:14;96247.91;;;11.76;93.91
17054;BME280;8643;48.824;11.422;2023-03-25T13:07:50;96215.97;;;13.44;89.40
17054;BME280;8643;48.824;11.422;2023-03-25T13:10:28;96235.53;;;10.30;98.41
17054;BME280;8643;48.824;11.422;2023-03-25T13:13:00;96240.00;;;10.63;100.00
17054;BME280;8643;48.824;11.422;2023-03-25T13:15:35;96262.09;;;8.94;100.00
17054;BME280;8643;48.824;11.422;2023-03-25T13:18:14;96290.63;;;8.00;100.00
17054;BME280;8643;48.824;11.422;2023-03-25T13:20:51;96306.78;;;7.75;100.00
17054;BME280;8643;48.824;11.422;2023-03-25T13:23:27;96300.13;;;7.64;100.00
17054;BME280;8643;48.824;11.422;2023-03-25T13:26:05;96288.09;;;7.35;100.00
17054;BME280;8643;48.824;11.422;2023-03-25T13:28:42;96284.81;;;7.50;100.00
17054;BME280;8643;48.824;11.422;2023-03-25T13:31:17;96277.16;;;7.44;100.00
17054;BME280;8643;48.824;11.422;2023-03-25T13:33:53;96276.94;;;7.19;100.00
17054;BME280;8643;48.824;11.422;2023-03-25T13:36:29;96273.13;;;7.41;100.00
17054;BME280;8643;48.824;11.422;2023-03-25T13:39:04;96244.50;;;10.02;100.00
17054;BME280;8643;48.824;11.422;2023-03-25T13:41:42;96243.13;;;10.49;100.00
17054;BME280;8643;48.824;11.422;2023-03-25T13:44:15;96242.00;;;9.23;100.00